createdAt,value
2023-08-25T00:01:35.892Z,97433.89
2023-08-25T00:04:03.020Z,97426.48
2023-08-25T00:06:29.816Z,97430.55
2023-08-25T00:08:56.636Z,97425.58
2023-08-25T00:11:23.503Z,97430.34
2023-08-25T00:13:50.381Z,97429.82
2023-08-25T00:16:17.298Z,97431.12
2023-08-25T00:18:48.496Z,97428.58
2023-08-25T00:21:15.684Z,97425.17
2023-08-25T00:23:42.575Z,97422.68
2023-08-25T00:26:09.374Z,97424.30
2023-08-25T00:28:36.697Z,97427.00
2023-08-25T00:31:03.842Z,97426.49
2023-08-25T00:33:30.765Z,97417.15
2023-08-25T00:35:57.570Z,97418.95
2023-08-25T00:38:28.656Z,97410.85
2023-08-25T00:40:55.801Z,97408.86
2023-08-25T00:43:22.601Z,97410.12
2023-08-25T00:45:49.449Z,97405.95
2023-08-25T00:48:16.419Z,97406.06
2023-08-25T00:50:45.739Z,97400.88
2023-08-25T00:53:13.617Z,97392.13
2023-08-25T00:55:40.426Z,97390.09
2023-08-25T00:58:08.545Z,97389.54
2023-08-25T01:00:35.750Z,97388.44
2023-08-25T01:03:03.598Z,97384.95
2023-08-25T01:05:30.976Z,97384.54
2023-08-25T01:07:58.175Z,97387.57
2023-08-25T01:10:48.955Z,97384.90
2023-08-25T01:13:24.607Z,97382.02
2023-08-25T01:15:54.330Z,97383.20
2023-08-25T01:18:28.173Z,97379.20
2023-08-25T01:20:56.508Z,97379.63
2023-08-25T01:23:29.399Z,97379.83
2023-08-25T01:25:57.728Z,97382.20
2023-08-25T01:28:26.678Z,97383.55
2023-08-25T01:30:55.889Z,97388.45
2023-08-25T01:33:27.734Z,97388.42
2023-08-25T01:36:23.784Z,97384.95
2023-08-25T01:39:07.490Z,97383.92
2023-08-25T01:41:34.202Z,97379.02
2023-08-25T01:44:04.346Z,97374.05
2023-08-25T01:46:35.522Z,97381.73
2023-08-25T01:49:04.437Z,97382.30
2023-08-25T01:51:33.095Z,97387.51
2023-08-25T01:54:00.075Z,97387.70
2023-08-25T01:56:26.985Z,97389.73
2023-08-25T01:58:53.928Z,97389.00
2023-08-25T02:01:20.878Z,97388.16
2023-08-25T02:03:47.869Z,97391.77
2023-08-25T02:06:14.654Z,97395.64
2023-08-25T02:08:42.937Z,97398.41
2023-08-25T02:11:09.802Z,97401.06
2023-08-25T02:13:36.508Z,97400.67
2023-08-25T02:16:03.383Z,97405.07
2023-08-25T02:18:30.535Z,97405.40
2023-08-25T02:20:57.466Z,97408.58
2023-08-25T02:23:26.262Z,97414.09
2023-08-25T02:25:53.473Z,97419.73
2023-08-25T02:28:21.441Z,97423.45
2023-08-25T02:30:48.084Z,97426.21
2023-08-25T02:33:17.192Z,97424.73
2023-08-25T02:35:45.219Z,97425.98
2023-08-25T02:38:12.091Z,97423.11
2023-08-25T02:40:39.276Z,97424.86
2023-08-25T02:43:07.701Z,97433.58
2023-08-25T02:45:36.127Z,97437.10
2023-08-25T02:48:03.520Z,97443.37
2023-08-25T02:50:30.726Z,97450.13
2023-08-25T02:52:57.507Z,97457.48
2023-08-25T02:55:24.356Z,97458.56
2023-08-25T02:57:52.311Z,97460.89
2023-08-25T03:00:24.965Z,97461.09
2023-08-25T03:02:53.326Z,97461.55
2023-08-25T03:05:22.381Z,97469.64
2023-08-25T03:07:54.056Z,97468.85
2023-08-25T03:10:21.473Z,97472.05
2023-08-25T03:12:48.657Z,97471.35
2023-08-25T03:15:15.386Z,97469.96
2023-08-25T03:17:42.700Z,97476.98
2023-08-25T03:20:10.488Z,97479.66
2023-08-25T03:22:37.864Z,97483.92
2023-08-25T03:25:05.303Z,97478.46
2023-08-25T03:27:35.129Z,97483.48
2023-08-25T03:30:02.425Z,97480.78
2023-08-25T03:32:29.800Z,97479.85
2023-08-25T03:34:56.533Z,97482.50
2023-08-25T03:37:25.420Z,97485.15
2023-08-25T03:39:52.725Z,97481.90
2023-08-25T03:42:20.060Z,97483.66
2023-08-25T03:44:48.536Z,97487.11
2023-08-25T03:47:15.288Z,97494.70
2023-08-25T03:49:41.921Z,97500.33
2023-08-25T03:52:09.750Z,97503.46
2023-08-25T03:54:37.371Z,97502.27
2023-08-25T03:57:07.906Z,97505.41
2023-08-25T03:59:35.033Z,97506.10
2023-08-25T04:02:04.340Z,97512.23
2023-08-25T04:04:35.063Z,97519.69
2023-08-25T04:07:01.972Z,97519.72
2023-08-25T04:09:28.808Z,97523.92
2023-08-25T04:11:58.220Z,97526.58
2023-08-25T04:14:25.394Z,97530.80
2023-08-25T04:16:52.166Z,97530.17
2023-08-25T04:19:21.698Z,97532.92
2023-08-25T04:21:49.044Z,97532.70
2023-08-25T04:24:19.592Z,97525.71
2023-08-25T04:26:46.463Z,97522.11
2023-08-25T04:29:13.284Z,97519.70
2023-08-25T04:31:41.050Z,97518.27
2023-08-25T04:34:10.001Z,97508.70
2023-08-25T04:36:37.961Z,97501.87
2023-08-25T04:39:04.892Z,97505.95
2023-08-25T04:41:32.090Z,97505.70
2023-08-25T04:43:59.646Z,97505.60
2023-08-25T04:46:30.416Z,97504.36
2023-08-25T04:48:58.123Z,97502.81
2023-08-25T04:51:25.381Z,97500.58
2023-08-25T04:53:52.127Z,97503.00
2023-08-25T04:56:19.360Z,97503.52
2023-08-25T04:58:46.518Z,97507.91
2023-08-25T05:01:14.656Z,97501.95
2023-08-25T05:03:45.346Z,97507.80
2023-08-25T05:06:12.770Z,97514.36
2023-08-25T05:08:39.545Z,97516.48
2023-08-25T05:11:07.922Z,97512.02
2023-08-25T05:13:34.666Z,97509.68
2023-08-25T05:16:03.453Z,97509.14
2023-08-25T05:18:44.697Z,97506.04
2023-08-25T05:21:12.689Z,97507.27
2023-08-25T05:23:43.863Z,97506.91
2023-08-25T05:26:10.626Z,97509.43
2023-08-25T05:28:37.490Z,97507.97
2023-08-25T05:31:04.431Z,97508.92
2023-08-25T05:34:06.752Z,97508.45
2023-08-25T05:36:37.146Z,97506.02
2023-08-25T05:39:06.800Z,97509.79
2023-08-25T05:41:33.891Z,97510.21
2023-08-25T05:44:04.229Z,97502.58
2023-08-25T05:46:32.872Z,97498.77
2023-08-25T05:48:59.775Z,97498.36
2023-08-25T05:51:26.808Z,97495.55
2023-08-25T05:53:53.526Z,97501.33
2023-08-25T05:56:20.330Z,97501.54
2023-08-25T05:58:47.115Z,97499.17
2023-08-25T06:01:15.144Z,97500.47
2023-08-25T06:03:42.137Z,97505.89
2023-08-25T06:06:08.870Z,97505.31
2023-08-25T06:08:36.094Z,97502.33
2023-08-25T06:11:03.219Z,97503.52
2023-08-25T06:13:30.283Z,97506.88
2023-08-25T06:15:57.133Z,97499.28
2023-08-25T06:18:25.224Z,97500.75
2023-08-25T06:20:53.299Z,97504.79
2023-08-25T06:23:20.360Z,97501.22
2023-08-25T06:25:47.454Z,97505.04
2023-08-25T06:28:14.214Z,97507.48
2023-08-25T06:30:42.438Z,97504.77
2023-08-25T06:33:10.984Z,97500.71
2023-08-25T06:35:40.796Z,97505.15
2023-08-25T06:38:08.696Z,97509.11
2023-08-25T06:40:35.743Z,97510.64
2023-08-25T06:43:03.382Z,97505.33
2023-08-25T06:45:31.097Z,97501.98
2023-08-25T06:47:58.591Z,97503.38
2023-08-25T06:50:26.144Z,97504.64
2023-08-25T06:52:52.901Z,97492.29
2023-08-25T06:55:20.046Z,97498.62
2023-08-25T06:57:49.643Z,97500.92
2023-08-25T07:00:18.285Z,97506.09
2023-08-25T07:02:45.682Z,97503.26
2023-08-25T07:05:13.800Z,97497.30
2023-08-25T07:07:40.950Z,97497.92
2023-08-25T07:10:08.316Z,97497.36
2023-08-25T07:12:35.664Z,97494.75
2023-08-25T07:15:03.042Z,97497.73
2023-08-25T07:17:30.358Z,97495.64
2023-08-25T07:19:57.106Z,97497.96
2023-08-25T07:22:23.882Z,97500.57
2023-08-25T07:24:53.750Z,97500.98
2023-08-25T07:27:21.115Z,97496.83
2023-08-25T07:29:48.632Z,97497.06
2023-08-25T07:32:15.422Z,97491.14
2023-08-25T07:34:46.040Z,97490.46
2023-08-25T07:37:13.252Z,97488.98
2023-08-25T07:39:41.339Z,97485.91
2023-08-25T07:42:09.191Z,97485.33
2023-08-25T07:44:38.171Z,97482.05
2023-08-25T07:47:05.346Z,97482.70
2023-08-25T07:49:32.757Z,97480.98
2023-08-25T07:51:59.543Z,97485.09
2023-08-25T07:54:27.757Z,97484.20
2023-08-25T07:56:54.834Z,97483.84
2023-08-25T07:59:22.161Z,97484.79
2023-08-25T08:01:50.856Z,97484.07
2023-08-25T08:04:17.800Z,97484.95
2023-08-25T08:06:44.974Z,97489.42
2023-08-25T08:09:11.932Z,97488.89
2023-08-25T08:11:39.542Z,97496.32
2023-08-25T08:14:06.270Z,97495.35
2023-08-25T08:16:36.539Z,97497.17
2023-08-25T08:19:05.726Z,97507.64
2023-08-25T08:21:32.794Z,97508.08
2023-08-25T08:24:00.507Z,97510.38
2023-08-25T08:26:27.285Z,97507.46
2023-08-25T08:28:54.091Z,97504.94
2023-08-25T08:31:21.022Z,97497.55
2023-08-25T08:33:48.286Z,97492.63
2023-08-25T08:36:16.755Z,97492.48
2023-08-25T08:38:43.558Z,97488.99
2023-08-25T08:41:11.395Z,97488.58
2023-08-25T08:43:42.035Z,97489.45
2023-08-25T08:46:10.791Z,97482.58
2023-08-25T08:48:38.234Z,97478.61
2023-08-25T08:51:06.968Z,97485.62
2023-08-25T08:53:33.778Z,97487.70
2023-08-25T08:56:02.649Z,97489.69
2023-08-25T08:58:29.860Z,97486.36
2023-08-25T09:00:57.420Z,97489.79
2023-08-25T09:03:30.809Z,97488.82
2023-08-25T09:06:03.630Z,97485.13
2023-08-25T09:08:36.297Z,97484.66
2023-08-25T09:11:04.521Z,97480.15
2023-08-25T09:13:36.108Z,97473.48
2023-08-25T09:16:12.655Z,97469.58
2023-08-25T09:18:46.331Z,97471.17
2023-08-25T09:21:22.163Z,97473.36
2023-08-25T09:24:00.731Z,97469.04
2023-08-25T09:26:29.954Z,97461.19
2023-08-25T09:28:58.997Z,97460.39
2023-08-25T09:31:29.978Z,97454.66
2023-08-25T09:34:15.925Z,97456.82
2023-08-25T09:36:54.436Z,97448.85
2023-08-25T09:39:22.480Z,97444.27
2023-08-25T09:41:50.382Z,97436.91
2023-08-25T09:44:17.493Z,97435.04
2023-08-25T09:46:45.672Z,97435.45
2023-08-25T09:49:14.578Z,97433.27
2023-08-25T09:51:46.067Z,97434.48
2023-08-25T09:54:16.309Z,97434.65
2023-08-25T09:56:45.526Z,97430.65
2023-08-25T09:59:13.928Z,97434.35
2023-08-25T10:01:46.013Z,97430.80
2023-08-25T10:04:17.400Z,97432.78
2023-08-25T10:06:44.140Z,97432.14
2023-08-25T10:09:11.414Z,97438.48
2023-08-25T10:11:44.415Z,97434.85
2023-08-25T10:14:14.073Z,97434.14
2023-08-25T10:16:51.723Z,97437.62
2023-08-25T10:19:27.067Z,97436.58
2023-08-25T10:21:56.243Z,97444.17
2023-08-25T10:24:24.109Z,97441.23
2023-08-25T10:26:53.030Z,97434.67
2023-08-25T10:29:21.820Z,97438.65
2023-08-25T10:32:06.792Z,97441.30
2023-08-25T10:34:43.465Z,97433.11
2023-08-25T10:37:13.345Z,97433.11
2023-08-25T10:40:06.908Z,97433.30
2023-08-25T10:42:35.950Z,97427.81
2023-08-25T10:45:09.502Z,97421.78
2023-08-25T10:47:47.129Z,97422.98
2023-08-25T10:50:19.616Z,97420.02
2023-08-25T10:52:50.813Z,97422.30
2023-08-25T10:55:30.191Z,97423.51
2023-08-25T10:58:10.699Z,97421.61
2023-08-25T11:00:43.814Z,97416.43
2023-08-25T11:03:11.032Z,97418.73
2023-08-25T11:05:40.296Z,97415.54
2023-08-25T11:08:26.587Z,97413.50
2023-08-25T11:11:19.905Z,97411.55
2023-08-25T11:13:47.521Z,97409.57
2023-08-25T11:16:14.635Z,97404.45
2023-08-25T11:18:44.446Z,97406.43
2023-08-25T11:21:11.511Z,97404.88
2023-08-25T11:23:40.482Z,97404.52
2023-08-25T11:26:09.160Z,97399.25
2023-08-25T11:28:37.543Z,97402.64
2023-08-25T11:31:04.934Z,97399.57
2023-08-25T11:33:33.182Z,97393.58
2023-08-25T11:36:01.035Z,97391.48
2023-08-25T11:38:31.629Z,97392.64
2023-08-25T11:40:58.467Z,97387.96
2023-08-25T11:43:36.840Z,97385.66
2023-08-25T11:46:07.415Z,97380.06
2023-08-25T11:48:34.393Z,97380.03
2023-08-25T11:51:01.676Z,97376.15
2023-08-25T11:53:28.623Z,97369.80
2023-08-25T11:56:06.147Z,97367.60
2023-08-25T11:58:35.091Z,97359.97
2023-08-25T12:01:07.703Z,97361.20
2023-08-25T12:03:35.669Z,97360.08
2023-08-25T12:06:10.217Z,97355.14
2023-08-25T12:08:39.746Z,97353.54
2023-08-25T12:11:08.911Z,97348.89
2023-08-25T12:13:41.132Z,97352.46
2023-08-25T12:16:07.892Z,97351.88
2023-08-25T12:18:39.072Z,97354.27
2023-08-25T12:21:07.501Z,97347.50
2023-08-25T12:23:41.784Z,97342.08
2023-08-25T12:26:12.970Z,97342.82
2023-08-25T12:28:43.880Z,97341.09
2023-08-25T12:31:10.746Z,97340.73
2023-08-25T12:33:37.424Z,97335.04
2023-08-25T12:36:04.581Z,97332.92
2023-08-25T12:38:32.755Z,97328.88
2023-08-25T12:41:00.049Z,97323.47
2023-08-25T12:43:28.429Z,97317.03
2023-08-25T12:45:55.379Z,97309.02
2023-08-25T12:48:22.641Z,97304.90
2023-08-25T12:50:49.440Z,97300.23
2023-08-25T12:53:16.174Z,97302.63
2023-08-25T12:55:44.587Z,97307.05
2023-08-25T12:58:11.299Z,97305.79
2023-08-25T13:00:38.159Z,97308.71
2023-08-25T13:03:05.330Z,97305.06
2023-08-25T13:05:32.371Z,97304.98
2023-08-25T13:07:59.105Z,97299.66
2023-08-25T13:10:27.541Z,97300.57
2023-08-25T13:12:54.304Z,97303.94
2023-08-25T13:15:21.175Z,97300.13
2023-08-25T13:17:49.715Z,97291.70
2023-08-25T13:20:16.476Z,97286.24
2023-08-25T13:22:43.336Z,97285.08
2023-08-25T13:25:10.132Z,97284.48
2023-08-25T13:27:38.371Z,97285.36
2023-08-25T13:30:10.068Z,97289.38
2023-08-25T13:32:36.946Z,97295.27
2023-08-25T13:35:05.118Z,97298.14
2023-08-25T13:37:33.003Z,97297.77
2023-08-25T13:40:00.165Z,97296.64
2023-08-25T13:42:26.890Z,97298.95
2023-08-25T13:44:53.631Z,97298.73
2023-08-25T13:47:20.383Z,97301.90
2023-08-25T13:49:47.166Z,97300.59
2023-08-25T13:52:13.879Z,97300.20
2023-08-25T13:54:41.645Z,97305.29
2023-08-25T13:57:09.072Z,97302.77
2023-08-25T13:59:38.174Z,97300.50
2023-08-25T14:02:06.897Z,97295.71
2023-08-25T14:04:33.611Z,97292.13
2023-08-25T14:07:00.294Z,97291.76
2023-08-25T14:09:27.088Z,97292.70
2023-08-25T14:11:53.785Z,97292.00
2023-08-25T14:14:20.627Z,97285.30
2023-08-25T14:16:47.420Z,97288.88
2023-08-25T14:19:14.227Z,97281.00
2023-08-25T14:21:41.041Z,97279.52
2023-08-25T14:24:07.788Z,97277.09
2023-08-25T14:26:34.636Z,97270.50
2023-08-25T14:29:03.496Z,97269.50
2023-08-25T14:31:30.318Z,97271.77
2023-08-25T14:33:57.049Z,97275.06
2023-08-25T14:36:23.846Z,97272.41
2023-08-25T14:38:50.566Z,97273.91
2023-08-25T14:41:17.860Z,97273.45
2023-08-25T14:43:45.685Z,97273.21
2023-08-25T14:46:12.418Z,97275.89
2023-08-25T14:48:39.854Z,97277.62
2023-08-25T14:51:06.767Z,97280.89
2023-08-25T14:53:33.600Z,97283.38
2023-08-25T14:56:00.667Z,97283.29
2023-08-25T14:58:27.469Z,97279.70
2023-08-25T15:00:55.043Z,97280.13
2023-08-25T15:03:22.441Z,97284.14
2023-08-25T15:06:00.338Z,97286.29
2023-08-25T15:08:30.984Z,97286.45
2023-08-25T15:10:58.278Z,97281.48
2023-08-25T15:13:25.444Z,97283.84
2023-08-25T15:15:52.825Z,97283.60
2023-08-25T15:18:19.966Z,97281.77
2023-08-25T15:21:00.721Z,97275.84
2023-08-25T15:23:28.046Z,97271.36
2023-08-25T15:25:57.580Z,97269.98
2023-08-25T15:28:28.770Z,97273.48
2023-08-25T15:31:01.713Z,97270.73
2023-08-25T15:33:29.511Z,97274.25
2023-08-25T15:35:56.273Z,97275.50
2023-08-25T15:38:24.118Z,97274.52
2023-08-25T15:40:50.916Z,97276.71
2023-08-25T15:43:17.715Z,97270.80
2023-08-25T15:45:48.723Z,97270.77
2023-08-25T15:48:16.299Z,97273.98
2023-08-25T15:50:47.353Z,97274.55
2023-08-25T15:53:16.559Z,97271.77
2023-08-25T15:55:44.501Z,97273.90
2023-08-25T15:58:11.307Z,97278.25
2023-08-25T16:00:39.782Z,97277.45
2023-08-25T16:03:06.747Z,97276.02
2023-08-25T16:05:33.687Z,97274.41
2023-08-25T16:08:00.435Z,97274.83
2023-08-25T16:10:28.837Z,97275.09
2023-08-25T16:12:57.493Z,97273.42
2023-08-25T16:15:32.148Z,97274.74
2023-08-25T16:17:59.499Z,97283.88
2023-08-25T16:20:32.651Z,97283.59
2023-08-25T16:22:59.561Z,97282.84
2023-08-25T16:25:27.916Z,97283.77
2023-08-25T16:27:54.754Z,97282.59
2023-08-25T16:30:26.794Z,97285.71
2023-08-25T16:32:53.742Z,97283.99
2023-08-25T16:35:21.454Z,97286.10
2023-08-25T16:37:48.342Z,97286.64
2023-08-25T16:40:15.173Z,97291.99
2023-08-25T16:42:42.143Z,97293.66
2023-08-25T16:45:09.443Z,97293.23
2023-08-25T16:47:37.275Z,97296.38
2023-08-25T16:50:05.200Z,97295.02
2023-08-25T16:52:32.353Z,97295.44
2023-08-25T16:54:59.218Z,97299.48
2023-08-25T16:57:25.971Z,97301.84
2023-08-25T16:59:52.794Z,97298.16
2023-08-25T17:02:19.488Z,97298.84
2023-08-25T17:04:46.231Z,97303.16
2023-08-25T17:07:15.666Z,97303.02
2023-08-25T17:09:43.959Z,97302.41
2023-08-25T17:12:10.689Z,97304.38
2023-08-25T17:14:38.729Z,97308.75
2023-08-25T17:17:06.252Z,97309.83
2023-08-25T17:19:33.082Z,97312.75
2023-08-25T17:21:59.909Z,97312.79
2023-08-25T17:24:26.621Z,97314.71
2023-08-25T17:26:53.488Z,97318.05
2023-08-25T17:29:20.290Z,97313.07
2023-08-25T17:31:47.509Z,97311.64
2023-08-25T17:34:14.397Z,97307.98
2023-08-25T17:36:41.182Z,97304.35
2023-08-25T17:39:08.881Z,97301.73
2023-08-25T17:41:35.806Z,97301.68
2023-08-25T17:44:03.262Z,97305.98
2023-08-25T17:46:30.337Z,97308.37
2023-08-25T17:48:57.199Z,97313.30
2023-08-25T17:51:24.088Z,97313.19
2023-08-25T17:53:50.893Z,97316.23
2023-08-25T17:56:17.630Z,97316.39
2023-08-25T17:58:44.454Z,97318.66
2023-08-25T18:01:11.376Z,97322.41
2023-08-25T18:03:41.293Z,97321.45
2023-08-25T18:06:08.258Z,97328.14
2023-08-25T18:08:40.046Z,97329.15
2023-08-25T18:11:07.579Z,97330.08
2023-08-25T18:13:35.635Z,97331.95
2023-08-25T18:16:06.200Z,97333.58
2023-08-25T18:18:33.489Z,97332.55
2023-08-25T18:21:03.232Z,97337.77
2023-08-25T18:23:34.800Z,97339.32
2023-08-25T18:26:01.797Z,97340.02
2023-08-25T18:28:28.740Z,97337.76
2023-08-25T18:31:01.162Z,97337.00
2023-08-25T18:33:29.116Z,97333.38
2023-08-25T18:35:57.352Z,97337.42
2023-08-25T18:38:25.501Z,97339.10
2023-08-25T18:40:52.428Z,97340.45
2023-08-25T18:43:19.412Z,97346.56
2023-08-25T18:45:54.113Z,97341.79
2023-08-25T18:48:21.377Z,97344.83
2023-08-25T18:50:48.410Z,97350.92
2023-08-25T18:53:15.256Z,97348.34
2023-08-25T18:55:47.961Z,97351.50
2023-08-25T18:58:17.654Z,97354.06
2023-08-25T19:00:46.614Z,97350.09
2023-08-25T19:03:19.236Z,97352.70
2023-08-25T19:05:46.952Z,97355.13
2023-08-25T19:08:14.186Z,97357.89
2023-08-25T19:10:41.179Z,97356.36
2023-08-25T19:13:10.122Z,97357.48
2023-08-25T19:15:36.952Z,97356.02
2023-08-25T19:18:04.494Z,97353.48
2023-08-25T19:20:31.395Z,97355.16
2023-08-25T19:22:58.274Z,97354.29
2023-08-25T19:25:25.352Z,97359.58
2023-08-25T19:27:53.208Z,97357.14
2023-08-25T19:30:20.045Z,97359.06
2023-08-25T19:32:46.951Z,97355.67
2023-08-25T19:35:15.295Z,97353.85
2023-08-25T19:37:41.991Z,97348.36
2023-08-25T19:40:10.727Z,97350.14
2023-08-25T19:42:38.968Z,97353.33
2023-08-25T19:45:07.927Z,97355.28
2023-08-25T19:47:35.043Z,97361.18
2023-08-25T19:50:02.023Z,97361.73
2023-08-25T19:52:28.800Z,97359.55
2023-08-25T19:54:57.009Z,97359.63
2023-08-25T19:57:23.956Z,97363.04
2023-08-25T19:59:50.832Z,97358.35
2023-08-25T20:02:17.704Z,97359.16
2023-08-25T20:04:47.461Z,97357.66
2023-08-25T20:07:14.306Z,97354.73
2023-08-25T20:09:41.074Z,97351.16
2023-08-25T20:12:08.201Z,97352.41
2023-08-25T20:14:36.880Z,97356.80
2023-08-25T20:17:04.421Z,97361.46
2023-08-25T20:19:31.259Z,97367.91
2023-08-25T20:21:58.085Z,97372.63
2023-08-25T20:24:24.890Z,97371.96
2023-08-25T20:26:51.739Z,97372.58
2023-08-25T20:29:18.639Z,97370.65
2023-08-25T20:31:45.488Z,97374.40
2023-08-25T20:34:12.298Z,97371.33
2023-08-25T20:36:39.149Z,97376.56
2023-08-25T20:39:06.101Z,97381.59
2023-08-25T20:41:32.883Z,97383.80
2023-08-25T20:43:59.639Z,97382.66
2023-08-25T20:46:26.537Z,97382.39
2023-08-25T20:48:53.409Z,97377.86
2023-08-25T20:51:22.677Z,97376.02
2023-08-25T20:53:50.939Z,97376.16
2023-08-25T20:56:17.780Z,97380.48
2023-08-25T20:58:45.189Z,97387.61
2023-08-25T21:01:12.391Z,97389.64
2023-08-25T21:03:39.977Z,97385.66
2023-08-25T21:06:07.773Z,97387.13
2023-08-25T21:08:37.461Z,97388.23
2023-08-25T21:11:04.373Z,97383.90
2023-08-25T21:13:31.273Z,97387.36
2023-08-25T21:15:59.786Z,97387.14
2023-08-25T21:18:26.681Z,97386.71
2023-08-25T21:20:54.539Z,97387.34
2023-08-25T21:23:23.029Z,97392.89
2023-08-25T21:25:52.317Z,97392.72
2023-08-25T21:28:23.223Z,97392.02
2023-08-25T21:30:59.241Z,97395.43
2023-08-25T21:33:27.578Z,97395.15
2023-08-25T21:35:54.709Z,97395.41
2023-08-25T21:38:21.547Z,97398.97
2023-08-25T21:40:48.381Z,97397.72
2023-08-25T21:43:16.077Z,97398.84
2023-08-25T21:45:48.681Z,97400.52
2023-08-25T21:48:15.737Z,97402.13
2023-08-25T21:50:43.311Z,97401.02
2023-08-25T21:53:10.315Z,97401.60
2023-08-25T21:55:40.031Z,97404.48
2023-08-25T21:58:07.216Z,97402.15
2023-08-25T22:00:34.989Z,97403.22
2023-08-25T22:03:02.372Z,97400.86
2023-08-25T22:05:29.490Z,97405.97
2023-08-25T22:07:56.619Z,97402.61
2023-08-25T22:10:23.469Z,97403.73
2023-08-25T22:12:52.791Z,97402.80
2023-08-25T22:15:21.414Z,97406.09
2023-08-25T22:17:48.228Z,97403.29
2023-08-25T22:20:15.134Z,97407.48
2023-08-25T22:22:41.898Z,97410.14
2023-08-25T22:25:09.517Z,97407.08
2023-08-25T22:27:37.355Z,97408.36
2023-08-25T22:30:05.086Z,97410.83
2023-08-25T22:35:03.364Z,97405.84
2023-08-25T22:37:30.182Z,97403.89
2023-08-25T22:39:57.011Z,97401.14
2023-08-25T22:42:23.813Z,97402.24
2023-08-25T22:44:51.009Z,97405.59
2023-08-25T22:47:17.885Z,97401.25
2023-08-25T22:49:44.610Z,97399.95
2023-08-25T22:52:11.387Z,97400.46
2023-08-25T22:54:38.162Z,97398.95
2023-08-25T22:57:05.099Z,97397.64
2023-08-25T22:59:31.791Z,97398.25
2023-08-25T23:02:00.572Z,97396.54
2023-08-25T23:04:28.254Z,97397.80
2023-08-25T23:06:55.156Z,97397.08
2023-08-25T23:09:22.068Z,97397.05
2023-08-25T23:11:49.160Z,97399.72
2023-08-25T23:14:15.859Z,97396.00
2023-08-25T23:16:42.569Z,97395.87
2023-08-25T23:19:09.493Z,97397.77
2023-08-25T23:21:36.318Z,97399.46
2023-08-25T23:24:03.619Z,97399.45
2023-08-25T23:26:30.362Z,97402.56
2023-08-25T23:28:57.160Z,97402.02
2023-08-25T23:31:24.043Z,97403.63
2023-08-25T23:33:50.990Z,97400.45
2023-08-25T23:36:17.903Z,97399.85
2023-08-25T23:38:44.711Z,97398.77
2023-08-25T23:41:11.509Z,97398.80
2023-08-25T23:43:38.404Z,97399.47
2023-08-25T23:46:06.996Z,97404.15
2023-08-25T23:48:34.437Z,97404.91
2023-08-25T23:51:01.379Z,97405.21
2023-08-25T23:53:28.620Z,97407.90
2023-08-25T23:55:55.659Z,97413.38
2023-08-25T23:58:22.528Z,97416.79
